sensor_id;sensor_type;location;lat;lon;timestamp;P1;durP1;ratioP1;P2;durP2;ratioP2
25511;SDS011;13414;44.534;18.700;2023-07-13T00:00:23;19.33;;;17.00;;
25511;SDS011;13414;44.534;18.700;2023-07-13T00:02:50;17.85;;;16.02;;
25511;SDS011;13414;44.534;18.700;2023-07-13T00:05:18;20.30;;;17.58;;
25511;SDS011;13414;44.534;18.700;2023-07-13T00:07:47;19.92;;;16.92;;
25511;SDS011;13414;44.534;18.700;2023-07-13T00:10:16;20.42;;;16.52;;
25511;SDS011;13414;44.534;18.700;2023-07-13T00:12:43;22.52;;;17.00;;
25511;SDS011;13414;44.534;18.700;2023-07-13T00:15:12;20.05;;;17.08;;
25511;SDS011;13414;44.534;18.700;2023-07-13T00:17:47;18.75;;;16.85;;
25511;SDS011;13414;44.534;18.700;2023-07-13T00:20:15;20.70;;;17.33;;
25511;SDS011;13414;44.534;18.700;2023-07-13T00:22:43;19.30;;;15.32;;
25511;SDS011;13414;44.534;18.700;2023-07-13T00:25:12;21.13;;;16.48;;
25511;SDS011;13414;44.534;18.700;2023-07-13T00:27:39;20.60;;;15.75;;
25511;SDS011;13414;44.534;18.700;2023-07-13T00:30:08;19.17;;;16.30;;
25511;SDS011;13414;44.534;18.700;2023-07-13T00:32:37;20.65;;;15.88;;
25511;SDS011;13414;44.534;18.700;2023-07-13T00:35:05;17.27;;;15.48;;
25511;SDS011;13414;44.534;18.700;2023-07-13T00:37:33;18.30;;;14.50;;
25511;SDS011;13414;44.534;18.700;2023-07-13T00:40:01;17.70;;;13.95;;
25511;SDS011;13414;44.534;18.700;2023-07-13T00:42:30;22.05;;;19.70;;
25511;SDS011;13414;44.534;18.700;2023-07-13T00:45:04;15.57;;;13.88;;
25511;SDS011;13414;44.534;18.700;2023-07-13T00:47:33;21.10;;;17.38;;
25511;SDS011;13414;44.534;18.700;2023-07-13T00:50:02;18.30;;;13.57;;
25511;SDS011;13414;44.534;18.700;2023-07-13T00:52:30;16.58;;;13.88;;
25511;SDS011;13414;44.534;18.700;2023-07-13T00:54:59;15.43;;;13.82;;
25511;SDS011;13414;44.534;18.700;2023-07-13T00:57:26;17.13;;;14.25;;
25511;SDS011;13414;44.534;18.700;2023-07-13T00:59:57;19.20;;;15.23;;
25511;SDS011;13414;44.534;18.700;2023-07-13T01:02:32;19.85;;;15.05;;
25511;SDS011;13414;44.534;18.700;2023-07-13T01:05:00;19.13;;;15.52;;
25511;SDS011;13414;44.534;18.700;2023-07-13T01:07:28;17.20;;;15.50;;
25511;SDS011;13414;44.534;18.700;2023-07-13T01:09:56;16.60;;;14.88;;
25511;SDS011;13414;44.534;18.700;2023-07-13T01:12:23;15.80;;;13.55;;
25511;SDS011;13414;44.534;18.700;2023-07-13T01:14:58;17.20;;;14.70;;
25511;SDS011;13414;44.534;18.700;2023-07-13T01:17:26;15.65;;;14.02;;
25511;SDS011;13414;44.534;18.700;2023-07-13T01:19:54;15.48;;;13.38;;
25511;SDS011;13414;44.534;18.700;2023-07-13T01:22:23;20.48;;;13.70;;
25511;SDS011;13414;44.534;18.700;2023-07-13T01:24:52;17.90;;;13.77;;
25511;SDS011;13414;44.534;18.700;2023-07-13T01:27:21;16.67;;;13.68;;
25511;SDS011;13414;44.534;18.700;2023-07-13T01:29:51;15.52;;;12.90;;
25511;SDS011;13414;44.534;18.700;2023-07-13T01:32:27;15.60;;;11.70;;
25511;SDS011;13414;44.534;18.700;2023-07-13T01:34:56;17.27;;;12.55;;
25511;SDS011;13414;44.534;18.700;2023-07-13T01:37:25;15.25;;;11.68;;
25511;SDS011;13414;44.534;18.700;2023-07-13T01:39:57;18.27;;;12.02;;
25511;SDS011;13414;44.534;18.700;2023-07-13T01:42:25;15.40;;;12.75;;
25511;SDS011;13414;44.534;18.700;2023-07-13T01:44:54;14.15;;;11.18;;
25511;SDS011;13414;44.534;18.700;2023-07-13T01:47:22;14.70;;;11.43;;
25511;SDS011;13414;44.534;18.700;2023-07-13T01:49:51;17.67;;;12.90;;
25511;SDS011;13414;44.534;18.700;2023-07-13T01:52:19;13.07;;;11.23;;
25511;SDS011;13414;44.534;18.700;2023-07-13T01:54:48;16.38;;;12.45;;
25511;SDS011;13414;44.534;18.700;2023-07-13T01:57:16;15.68;;;12.40;;
25511;SDS011;13414;44.534;18.700;2023-07-13T01:59:43;14.60;;;10.88;;
25511;SDS011;13414;44.534;18.700;2023-07-13T02:02:11;13.90;;;10.88;;
25511;SDS011;13414;44.534;18.700;2023-07-13T02:04:38;16.98;;;10.63;;
25511;SDS011;13414;44.534;18.700;2023-07-13T02:07:05;13.27;;;10.43;;
25511;SDS011;13414;44.534;18.700;2023-07-13T02:09:33;15.68;;;11.82;;
25511;SDS011;13414;44.534;18.700;2023-07-13T02:12:02;14.90;;;11.43;;
25511;SDS011;13414;44.534;18.700;2023-07-13T02:14:32;16.55;;;12.27;;
25511;SDS011;13414;44.534;18.700;2023-07-13T02:17:00;13.50;;;11.30;;
25511;SDS011;13414;44.534;18.700;2023-07-13T02:19:28;15.10;;;10.57;;
25511;SDS011;13414;44.534;18.700;2023-07-13T02:21:55;12.57;;;10.50;;
25511;SDS011;13414;44.534;18.700;2023-07-13T02:24:23;15.30;;;9.95;;
25511;SDS011;13414;44.534;18.700;2023-07-13T02:26:50;14.40;;;10.70;;
25511;SDS011;13414;44.534;18.700;2023-07-13T02:29:20;14.07;;;10.43;;
25511;SDS011;13414;44.534;18.700;2023-07-13T02:31:48;12.65;;;10.10;;
25511;SDS011;13414;44.534;18.700;2023-07-13T02:34:15;14.40;;;9.38;;
25511;SDS011;13414;44.534;18.700;2023-07-13T02:36:42;14.63;;;10.05;;
25511;SDS011;13414;44.534;18.700;2023-07-13T02:39:13;14.30;;;9.68;;
25511;SDS011;13414;44.534;18.700;2023-07-13T02:41:41;15.65;;;10.85;;
25511;SDS011;13414;44.534;18.700;2023-07-13T02:44:08;13.68;;;10.60;;
25511;SDS011;13414;44.534;18.700;2023-07-13T02:46:37;12.45;;;11.15;;
25511;SDS011;13414;44.534;18.700;2023-07-13T02:49:05;14.25;;;10.82;;
25511;SDS011;13414;44.534;18.700;2023-07-13T02:51:33;11.85;;;10.60;;
25511;SDS011;13414;44.534;18.700;2023-07-13T02:54:00;12.15;;;10.60;;
25511;SDS011;13414;44.534;18.700;2023-07-13T02:56:29;16.77;;;10.32;;
25511;SDS011;13414;44.534;18.700;2023-07-13T02:58:57;12.82;;;9.43;;
25511;SDS011;13414;44.534;18.700;2023-07-13T03:01:25;11.90;;;9.70;;
25511;SDS011;13414;44.534;18.700;2023-07-13T03:03:54;15.10;;;9.80;;
25511;SDS011;13414;44.534;18.700;2023-07-13T03:06:21;15.57;;;10.15;;
25511;SDS011;13414;44.534;18.700;2023-07-13T03:08:53;13.50;;;10.00;;
25511;SDS011;13414;44.534;18.700;2023-07-13T03:11:21;14.15;;;10.70;;
25511;SDS011;13414;44.534;18.700;2023-07-13T03:14:00;16.92;;;9.98;;
25511;SDS011;13414;44.534;18.700;2023-07-13T03:16:31;14.32;;;9.95;;
25511;SDS011;13414;44.534;18.700;2023-07-13T03:19:00;13.35;;;9.05;;
25511;SDS011;13414;44.534;18.700;2023-07-13T03:21:28;12.38;;;9.35;;
25511;SDS011;13414;44.534;18.700;2023-07-13T03:23:55;14.10;;;9.60;;
25511;SDS011;13414;44.534;18.700;2023-07-13T03:26:23;12.45;;;9.85;;
25511;SDS011;13414;44.534;18.700;2023-07-13T03:28:51;12.30;;;9.60;;
25511;SDS011;13414;44.534;18.700;2023-07-13T03:31:25;13.10;;;9.98;;
25511;SDS011;13414;44.534;18.700;2023-07-13T03:34:03;13.77;;;9.20;;
25511;SDS011;13414;44.534;18.700;2023-07-13T03:36:30;13.07;;;9.40;;
25511;SDS011;13414;44.534;18.700;2023-07-13T03:39:03;14.80;;;9.50;;
25511;SDS011;13414;44.534;18.700;2023-07-13T03:41:41;13.80;;;8.93;;
25511;SDS011;13414;44.534;18.700;2023-07-13T03:44:08;11.27;;;8.38;;
25511;SDS011;13414;44.534;18.700;2023-07-13T03:46:36;11.10;;;8.70;;
25511;SDS011;13414;44.534;18.700;2023-07-13T03:49:05;12.13;;;8.80;;
25511;SDS011;13414;44.534;18.700;2023-07-13T03:51:32;17.75;;;9.73;;
25511;SDS011;13414;44.534;18.700;2023-07-13T03:54:00;17.70;;;9.43;;
25511;SDS011;13414;44.534;18.700;2023-07-13T03:56:28;12.07;;;8.50;;
25511;SDS011;13414;44.534;18.700;2023-07-13T03:58:59;12.27;;;9.20;;
25511;SDS011;13414;44.534;18.700;2023-07-13T04:01:29;11.60;;;8.77;;
25511;SDS011;13414;44.534;18.700;2023-07-13T04:03:56;13.52;;;9.77;;
25511;SDS011;13414;44.534;18.700;2023-07-13T04:06:27;13.90;;;8.90;;
25511;SDS011;13414;44.534;18.700;2023-07-13T04:08:56;11.75;;;8.43;;
25511;SDS011;13414;44.534;18.700;2023-07-13T04:11:26;11.73;;;8.00;;
25511;SDS011;13414;44.534;18.700;2023-07-13T04:13:59;16.00;;;9.80;;
25511;SDS011;13414;44.534;18.700;2023-07-13T04:16:26;12.48;;;9.43;;
25511;SDS011;13414;44.534;18.700;2023-07-13T04:18:54;15.55;;;9.90;;
25511;SDS011;13414;44.534;18.700;2023-07-13T04:21:25;12.75;;;8.88;;
25511;SDS011;13414;44.534;18.700;2023-07-13T04:23:55;12.63;;;8.73;;
25511;SDS011;13414;44.534;18.700;2023-07-13T04:26:22;11.90;;;8.75;;
25511;SDS011;13414;44.534;18.700;2023-07-13T04:28:51;12.88;;;8.88;;
25511;SDS011;13414;44.534;18.700;2023-07-13T04:31:20;12.85;;;9.82;;
25511;SDS011;13414;44.534;18.700;2023-07-13T04:33:47;13.75;;;9.23;;
25511;SDS011;13414;44.534;18.700;2023-07-13T04:36:16;14.15;;;8.95;;
25511;SDS011;13414;44.534;18.700;2023-07-13T04:38:45;17.23;;;9.00;;
25511;SDS011;13414;44.534;18.700;2023-07-13T04:41:13;12.07;;;8.13;;
25511;SDS011;13414;44.534;18.700;2023-07-13T04:43:43;12.23;;;8.02;;
25511;SDS011;13414;44.534;18.700;2023-07-13T04:46:11;15.55;;;8.27;;
25511;SDS011;13414;44.534;18.700;2023-07-13T04:48:40;11.68;;;8.18;;
25511;SDS011;13414;44.534;18.700;2023-07-13T04:51:08;14.68;;;8.32;;
25511;SDS011;13414;44.534;18.700;2023-07-13T04:53:36;10.05;;;7.97;;
25511;SDS011;13414;44.534;18.700;2023-07-13T04:56:05;11.30;;;8.52;;
25511;SDS011;13414;44.534;18.700;2023-07-13T04:58:33;10.13;;;7.57;;
25511;SDS011;13414;44.534;18.700;2023-07-13T05:01:01;11.63;;;8.20;;
25511;SDS011;13414;44.534;18.700;2023-07-13T05:03:29;17.02;;;8.05;;
25511;SDS011;13414;44.534;18.700;2023-07-13T05:05:57;10.93;;;7.90;;
25511;SDS011;13414;44.534;18.700;2023-07-13T05:08:25;17.27;;;8.60;;
25511;SDS011;13414;44.534;18.700;2023-07-13T05:10:53;16.40;;;8.48;;
25511;SDS011;13414;44.534;18.700;2023-07-13T05:13:22;45.95;;;15.32;;
25511;SDS011;13414;44.534;18.700;2023-07-13T05:15:55;15.43;;;8.48;;
25511;SDS011;13414;44.534;18.700;2023-07-13T05:18:23;12.70;;;7.72;;
25511;SDS011;13414;44.534;18.700;2023-07-13T05:20:57;10.98;;;7.97;;
25511;SDS011;13414;44.534;18.700;2023-07-13T05:23:25;12.97;;;8.00;;
25511;SDS011;13414;44.534;18.700;2023-07-13T05:25:53;12.25;;;8.02;;
25511;SDS011;13414;44.534;18.700;2023-07-13T05:28:22;12.50;;;7.90;;
25511;SDS011;13414;44.534;18.700;2023-07-13T05:30:49;11.27;;;7.90;;
25511;SDS011;13414;44.534;18.700;2023-07-13T05:33:17;13.15;;;8.40;;
25511;SDS011;13414;44.534;18.700;2023-07-13T05:35:45;12.43;;;7.88;;
25511;SDS011;13414;44.534;18.700;2023-07-13T05:38:12;13.95;;;9.93;;
25511;SDS011;13414;44.534;18.700;2023-07-13T05:40:42;15.60;;;10.70;;
25511;SDS011;13414;44.534;18.700;2023-07-13T05:43:09;11.73;;;8.40;;
25511;SDS011;13414;44.534;18.700;2023-07-13T05:45:38;10.63;;;8.68;;
25511;SDS011;13414;44.534;18.700;2023-07-13T05:48:06;11.30;;;10.10;;
25511;SDS011;13414;44.534;18.700;2023-07-13T05:50:34;7.80;;;6.07;;
25511;SDS011;13414;44.534;18.700;2023-07-13T05:53:01;11.07;;;7.50;;
25511;SDS011;13414;44.534;18.700;2023-07-13T05:55:30;10.90;;;7.00;;
25511;SDS011;13414;44.534;18.700;2023-07-13T05:57:57;11.13;;;7.20;;
25511;SDS011;13414;44.534;18.700;2023-07-13T06:00:25;9.90;;;7.43;;
25511;SDS011;13414;44.534;18.700;2023-07-13T06:02:55;11.30;;;6.40;;
25511;SDS011;13414;44.534;18.700;2023-07-13T06:05:23;12.93;;;7.07;;
25511;SDS011;13414;44.534;18.700;2023-07-13T06:07:52;13.63;;;9.00;;
25511;SDS011;13414;44.534;18.700;2023-07-13T06:10:19;14.85;;;8.93;;
25511;SDS011;13414;44.534;18.700;2023-07-13T06:12:47;13.25;;;8.98;;
25511;SDS011;13414;44.534;18.700;2023-07-13T06:15:16;12.45;;;7.35;;
25511;SDS011;13414;44.534;18.700;2023-07-13T06:17:46;9.98;;;7.35;;
25511;SDS011;13414;44.534;18.700;2023-07-13T06:20:15;13.77;;;7.88;;
25511;SDS011;13414;44.534;18.700;2023-07-13T06:22:42;12.10;;;8.43;;
25511;SDS011;13414;44.534;18.700;2023-07-13T06:25:10;12.50;;;6.97;;
25511;SDS011;13414;44.534;18.700;2023-07-13T06:27:37;10.73;;;6.72;;
25511;SDS011;13414;44.534;18.700;2023-07-13T06:30:05;11.90;;;6.63;;
25511;SDS011;13414;44.534;18.700;2023-07-13T06:32:33;10.95;;;7.00;;
25511;SDS011;13414;44.534;18.700;2023-07-13T06:35:01;11.05;;;7.43;;
25511;SDS011;13414;44.534;18.700;2023-07-13T06:37:30;9.05;;;6.57;;
25511;SDS011;13414;44.534;18.700;2023-07-13T06:39:58;9.10;;;6.82;;
25511;SDS011;13414;44.534;18.700;2023-07-13T06:42:26;13.63;;;7.80;;
25511;SDS011;13414;44.534;18.700;2023-07-13T06:44:53;11.63;;;8.30;;
25511;SDS011;13414;44.534;18.700;2023-07-13T06:47:20;12.13;;;6.65;;
25511;SDS011;13414;44.534;18.700;2023-07-13T06:49:48;12.95;;;6.75;;
25511;SDS011;13414;44.534;18.700;2023-07-13T06:52:15;11.88;;;7.00;;
25511;SDS011;13414;44.534;18.700;2023-07-13T06:54:44;10.82;;;7.32;;
25511;SDS011;13414;44.534;18.700;2023-07-13T06:57:11;11.23;;;6.70;;
25511;SDS011;13414;44.534;18.700;2023-07-13T06:59:39;13.32;;;7.82;;
25511;SDS011;13414;44.534;18.700;2023-07-13T07:02:07;11.15;;;7.65;;
25511;SDS011;13414;44.534;18.700;2023-07-13T07:04:36;12.98;;;7.15;;
25511;SDS011;13414;44.534;18.700;2023-07-13T07:07:04;10.77;;;6.95;;
25511;SDS011;13414;44.534;18.700;2023-07-13T07:09:31;15.27;;;7.40;;
25511;SDS011;13414;44.534;18.700;2023-07-13T07:12:00;11.60;;;7.03;;
25511;SDS011;13414;44.534;18.700;2023-07-13T07:14:28;13.15;;;8.00;;
25511;SDS011;13414;44.534;18.700;2023-07-13T07:16:55;8.55;;;6.47;;
25511;SDS011;13414;44.534;18.700;2023-07-13T07:19:24;10.48;;;8.02;;
25511;SDS011;13414;44.534;18.700;2023-07-13T07:21:51;14.23;;;7.00;;
25511;SDS011;13414;44.534;18.700;2023-07-13T07:24:18;16.65;;;7.28;;
25511;SDS011;13414;44.534;18.700;2023-07-13T07:26:46;10.20;;;6.35;;
25511;SDS011;13414;44.534;18.700;2023-07-13T07:29:15;9.43;;;6.10;;
25511;SDS011;13414;44.534;18.700;2023-07-13T07:31:42;9.90;;;6.43;;
25511;SDS011;13414;44.534;18.700;2023-07-13T07:34:09;13.32;;;6.95;;
25511;SDS011;13414;44.534;18.700;2023-07-13T07:36:37;10.25;;;6.90;;
25511;SDS011;13414;44.534;18.700;2023-07-13T07:39:04;10.00;;;6.93;;
25511;SDS011;13414;44.534;18.700;2023-07-13T07:41:32;10.52;;;7.00;;
25511;SDS011;13414;44.534;18.700;2023-07-13T07:43:59;14.23;;;7.97;;
25511;SDS011;13414;44.534;18.700;2023-07-13T07:46:28;8.63;;;7.28;;
25511;SDS011;13414;44.534;18.700;2023-07-13T07:48:55;12.00;;;7.07;;
25511;SDS011;13414;44.534;18.700;2023-07-13T07:51:23;16.05;;;6.85;;
25511;SDS011;13414;44.534;18.700;2023-07-13T07:53:50;13.68;;;6.82;;
25511;SDS011;13414;44.534;18.700;2023-07-13T07:56:18;10.43;;;7.57;;
25511;SDS011;13414;44.534;18.700;2023-07-13T07:58:45;14.43;;;7.80;;
25511;SDS011;13414;44.534;18.700;2023-07-13T08:01:13;14.88;;;8.02;;
25511;SDS011;13414;44.534;18.700;2023-07-13T08:03:42;16.77;;;7.65;;
25511;SDS011;13414;44.534;18.700;2023-07-13T08:06:10;14.13;;;7.30;;
25511;SDS011;13414;44.534;18.700;2023-07-13T08:08:37;13.32;;;7.45;;
25511;SDS011;13414;44.534;18.700;2023-07-13T08:11:05;12.98;;;7.38;;
25511;SDS011;13414;44.534;18.700;2023-07-13T08:13:33;11.77;;;7.28;;
25511;SDS011;13414;44.534;18.700;2023-07-13T08:16:01;14.45;;;7.10;;
25511;SDS011;13414;44.534;18.700;2023-07-13T08:18:30;10.55;;;6.97;;
25511;SDS011;13414;44.534;18.700;2023-07-13T08:20:59;14.75;;;7.38;;
25511;SDS011;13414;44.534;18.700;2023-07-13T08:23:30;13.05;;;7.82;;
25511;SDS011;13414;44.534;18.700;2023-07-13T08:25:57;13.45;;;7.55;;
25511;SDS011;13414;44.534;18.700;2023-07-13T08:28:26;14.43;;;7.10;;
25511;SDS011;13414;44.534;18.700;2023-07-13T08:30:54;14.95;;;6.57;;
25511;SDS011;13414;44.534;18.700;2023-07-13T08:33:26;11.70;;;7.38;;
25511;SDS011;13414;44.534;18.700;2023-07-13T08:35:53;13.80;;;6.57;;
25511;SDS011;13414;44.534;18.700;2023-07-13T08:38:22;18.67;;;8.77;;
25511;SDS011;13414;44.534;18.700;2023-07-13T08:40:51;13.98;;;8.20;;
25511;SDS011;13414;44.534;18.700;2023-07-13T08:43:20;12.18;;;7.03;;
25511;SDS011;13414;44.534;18.700;2023-07-13T08:45:53;13.98;;;6.97;;
25511;SDS011;13414;44.534;18.700;2023-07-13T08:48:25;11.82;;;6.75;;
25511;SDS011;13414;44.534;18.700;2023-07-13T08:50:56;12.57;;;7.80;;
25511;SDS011;13414;44.534;18.700;2023-07-13T08:53:30;10.98;;;7.35;;
25511;SDS011;13414;44.534;18.700;2023-07-13T08:56:03;10.55;;;7.30;;
25511;SDS011;13414;44.534;18.700;2023-07-13T08:58:36;12.07;;;6.80;;
25511;SDS011;13414;44.534;18.700;2023-07-13T09:01:08;13.85;;;7.13;;
25511;SDS011;13414;44.534;18.700;2023-07-13T09:03:43;11.02;;;6.50;;
25511;SDS011;13414;44.534;18.700;2023-07-13T09:06:27;12.60;;;6.80;;
25511;SDS011;13414;44.534;18.700;2023-07-13T09:09:03;13.02;;;6.45;;
25511;SDS011;13414;44.534;18.700;2023-07-13T09:11:42;12.15;;;6.70;;
25511;SDS011;13414;44.534;18.700;2023-07-13T09:14:24;16.30;;;9.23;;
25511;SDS011;13414;44.534;18.700;2023-07-13T09:17:00;13.90;;;6.25;;
25511;SDS011;13414;44.534;18.700;2023-07-13T09:19:30;11.88;;;6.50;;
25511;SDS011;13414;44.534;18.700;2023-07-13T09:22:01;13.48;;;8.80;;
25511;SDS011;13414;44.534;18.700;2023-07-13T09:24:36;15.30;;;8.65;;
25511;SDS011;13414;44.534;18.700;2023-07-13T09:29:44;13.50;;;8.55;;
25511;SDS011;13414;44.534;18.700;2023-07-13T09:32:14;10.27;;;7.07;;
25511;SDS011;13414;44.534;18.700;2023-07-13T09:34:51;10.95;;;7.60;;
25511;SDS011;13414;44.534;18.700;2023-07-13T09:37:20;9.00;;;6.60;;
25511;SDS011;13414;44.534;18.700;2023-07-13T09:39:51;10.57;;;6.70;;
25511;SDS011;13414;44.534;18.700;2023-07-13T09:42:20;18.23;;;11.73;;
25511;SDS011;13414;44.534;18.700;2023-07-13T09:44:51;13.82;;;8.73;;
25511;SDS011;13414;44.534;18.700;2023-07-13T09:47:21;16.35;;;8.77;;
25511;SDS011;13414;44.534;18.700;2023-07-13T09:49:55;13.65;;;8.35;;
25511;SDS011;13414;44.534;18.700;2023-07-13T09:52:25;34.20;;;9.55;;
25511;SDS011;13414;44.534;18.700;2023-07-13T09:54:54;14.05;;;7.28;;
25511;SDS011;13414;44.534;18.700;2023-07-13T09:57:25;14.98;;;7.05;;
25511;SDS011;13414;44.534;18.700;2023-07-13T09:59:54;19.00;;;14.20;;
25511;SDS011;13414;44.534;18.700;2023-07-13T10:02:25;11.63;;;7.22;;
25511;SDS011;13414;44.534;18.700;2023-07-13T10:04:55;14.35;;;8.27;;
25511;SDS011;13414;44.534;18.700;2023-07-13T10:07:24;11.02;;;6.97;;
25511;SDS011;13414;44.534;18.700;2023-07-13T10:09:52;11.23;;;6.72;;
25511;SDS011;13414;44.534;18.700;2023-07-13T10:12:22;12.88;;;8.10;;
25511;SDS011;13414;44.534;18.700;2023-07-13T10:14:51;10.18;;;6.85;;
25511;SDS011;13414;44.534;18.700;2023-07-13T10:17:25;12.23;;;7.18;;
25511;SDS011;13414;44.534;18.700;2023-07-13T10:19:57;17.13;;;7.45;;
25511;SDS011;13414;44.534;18.700;2023-07-13T10:22:32;15.50;;;7.97;;
25511;SDS011;13414;44.534;18.700;2023-07-13T10:25:14;12.68;;;8.07;;
25511;SDS011;13414;44.534;18.700;2023-07-13T10:27:45;9.73;;;7.68;;
25511;SDS011;13414;44.534;18.700;2023-07-13T10:30:15;10.25;;;7.47;;
25511;SDS011;13414;44.534;18.700;2023-07-13T10:32:48;10.55;;;7.43;;
25511;SDS011;13414;44.534;18.700;2023-07-13T10:35:17;11.55;;;7.40;;
25511;SDS011;13414;44.534;18.700;2023-07-13T10:37:48;13.48;;;7.80;;
25511;SDS011;13414;44.534;18.700;2023-07-13T10:40:19;14.73;;;8.95;;
25511;SDS011;13414;44.534;18.700;2023-07-13T10:43:01;15.48;;;8.60;;
25511;SDS011;13414;44.534;18.700;2023-07-13T10:45:33;13.20;;;9.00;;
25511;SDS011;13414;44.534;18.700;2023-07-13T10:48:02;13.82;;;7.95;;
25511;SDS011;13414;44.534;18.700;2023-07-13T10:50:35;13.15;;;7.70;;
25511;SDS011;13414;44.534;18.700;2023-07-13T10:53:17;11.85;;;7.47;;
25511;SDS011;13414;44.534;18.700;2023-07-13T10:55:56;10.68;;;7.05;;
25511;SDS011;13414;44.534;18.700;2023-07-13T10:58:33;13.15;;;7.65;;
25511;SDS011;13414;44.534;18.700;2023-07-13T11:01:08;13.88;;;8.50;;
25511;SDS011;13414;44.534;18.700;2023-07-13T11:03:46;12.15;;;8.55;;
25511;SDS011;13414;44.534;18.700;2023-07-13T11:06:17;15.60;;;7.90;;
25511;SDS011;13414;44.534;18.700;2023-07-13T11:08:59;11.68;;;9.25;;
25511;SDS011;13414;44.534;18.700;2023-07-13T11:11:44;21.35;;;9.05;;
25511;SDS011;13414;44.534;18.700;2023-07-13T11:14:31;24.35;;;8.18;;
25511;SDS011;13414;44.534;18.700;2023-07-13T11:20:09;12.07;;;7.10;;
25511;SDS011;13414;44.534;18.700;2023-07-13T11:22:47;13.50;;;7.47;;
25511;SDS011;13414;44.534;18.700;2023-07-13T11:25:27;11.27;;;7.93;;
25511;SDS011;13414;44.534;18.700;2023-07-13T11:28:04;12.05;;;7.60;;
25511;SDS011;13414;44.534;18.700;2023-07-13T11:30:49;11.35;;;7.72;;
25511;SDS011;13414;44.534;18.700;2023-07-13T11:33:28;17.23;;;8.60;;
25511;SDS011;13414;44.534;18.700;2023-07-13T11:36:13;13.82;;;7.97;;
25511;SDS011;13414;44.534;18.700;2023-07-13T11:38:42;10.80;;;7.78;;
25511;SDS011;13414;44.534;18.700;2023-07-13T11:41:14;11.90;;;8.10;;
25511;SDS011;13414;44.534;18.700;2023-07-13T11:43:43;13.00;;;8.63;;
25511;SDS011;13414;44.534;18.700;2023-07-13T11:46:18;21.92;;;14.25;;
25511;SDS011;13414;44.534;18.700;2023-07-13T11:48:48;15.55;;;9.00;;
25511;SDS011;13414;44.534;18.700;2023-07-13T11:51:18;13.90;;;8.15;;
25511;SDS011;13414;44.534;18.700;2023-07-13T11:53:49;11.40;;;8.48;;
25511;SDS011;13414;44.534;18.700;2023-07-13T11:56:18;13.27;;;8.95;;
25511;SDS011;13414;44.534;18.700;2023-07-13T11:58:48;16.13;;;7.78;;
25511;SDS011;13414;44.534;18.700;2023-07-13T12:01:20;11.35;;;7.85;;
25511;SDS011;13414;44.534;18.700;2023-07-13T12:03:51;19.48;;;8.30;;
25511;SDS011;13414;44.534;18.700;2023-07-13T12:06:21;12.68;;;8.60;;
25511;SDS011;13414;44.534;18.700;2023-07-13T12:08:55;13.95;;;8.45;;
25511;SDS011;13414;44.534;18.700;2023-07-13T12:11:24;14.63;;;8.43;;
25511;SDS011;13414;44.534;18.700;2023-07-13T12:13:51;12.68;;;8.00;;
25511;SDS011;13414;44.534;18.700;2023-07-13T12:16:24;14.50;;;8.30;;
25511;SDS011;13414;44.534;18.700;2023-07-13T12:18:55;17.00;;;9.27;;
25511;SDS011;13414;44.534;18.700;2023-07-13T12:21:27;16.75;;;8.77;;
25511;SDS011;13414;44.534;18.700;2023-07-13T12:23:57;11.27;;;8.85;;
25511;SDS011;13414;44.534;18.700;2023-07-13T12:26:27;17.10;;;9.20;;
25511;SDS011;13414;44.534;18.700;2023-07-13T12:28:57;12.40;;;8.02;;
25511;SDS011;13414;44.534;18.700;2023-07-13T12:31:31;17.42;;;8.40;;
25511;SDS011;13414;44.534;18.700;2023-07-13T12:34:01;11.60;;;8.50;;
25511;SDS011;13414;44.534;18.700;2023-07-13T12:36:31;17.73;;;8.98;;
25511;SDS011;13414;44.534;18.700;2023-07-13T12:39:03;12.60;;;8.43;;
25511;SDS011;13414;44.534;18.700;2023-07-13T12:41:40;15.40;;;9.27;;
25511;SDS011;13414;44.534;18.700;2023-07-13T12:44:13;12.02;;;7.75;;
25511;SDS011;13414;44.534;18.700;2023-07-13T12:46:57;17.92;;;8.80;;
25511;SDS011;13414;44.534;18.700;2023-07-13T12:49:30;16.10;;;8.52;;
25511;SDS011;13414;44.534;18.700;2023-07-13T12:52:00;11.80;;;8.10;;
25511;SDS011;13414;44.534;18.700;2023-07-13T12:54:30;12.65;;;8.13;;
25511;SDS011;13414;44.534;18.700;2023-07-13T12:56:58;14.18;;;7.43;;
25511;SDS011;13414;44.534;18.700;2023-07-13T12:59:31;12.25;;;8.00;;
25511;SDS011;13414;44.534;18.700;2023-07-13T13:02:08;13.25;;;7.63;;
25511;SDS011;13414;44.534;18.700;2023-07-13T13:04:49;12.43;;;7.30;;
25511;SDS011;13414;44.534;18.700;2023-07-13T13:07:16;17.40;;;9.07;;
25511;SDS011;13414;44.534;18.700;2023-07-13T13:09:45;12.52;;;8.23;;
25511;SDS011;13414;44.534;18.700;2023-07-13T13:12:13;16.05;;;8.77;;
25511;SDS011;13414;44.534;18.700;2023-07-13T13:14:42;9.70;;;7.35;;
25511;SDS011;13414;44.534;18.700;2023-07-13T13:17:16;12.50;;;7.55;;
25511;SDS011;13414;44.534;18.700;2023-07-13T13:19:46;14.35;;;8.13;;
25511;SDS011;13414;44.534;18.700;2023-07-13T13:22:15;16.17;;;8.57;;
25511;SDS011;13414;44.534;18.700;2023-07-13T13:24:43;15.55;;;10.10;;
25511;SDS011;13414;44.534;18.700;2023-07-13T13:27:13;11.70;;;8.43;;
25511;SDS011;13414;44.534;18.700;2023-07-13T13:29:43;11.65;;;7.50;;
25511;SDS011;13414;44.534;18.700;2023-07-13T13:32:12;14.15;;;8.00;;
25511;SDS011;13414;44.534;18.700;2023-07-13T13:34:41;15.20;;;7.78;;
25511;SDS011;13414;44.534;18.700;2023-07-13T13:37:18;12.13;;;7.50;;
25511;SDS011;13414;44.534;18.700;2023-07-13T13:39:48;13.73;;;7.57;;
25511;SDS011;13414;44.534;18.700;2023-07-13T13:42:17;16.90;;;8.23;;
25511;SDS011;13414;44.534;18.700;2023-07-13T13:44:46;14.50;;;7.68;;
25511;SDS011;13414;44.534;18.700;2023-07-13T13:47:20;18.05;;;8.43;;
25511;SDS011;13414;44.534;18.700;2023-07-13T13:49:56;12.85;;;8.05;;
25511;SDS011;13414;44.534;18.700;2023-07-13T13:52:24;14.38;;;7.50;;
25511;SDS011;13414;44.534;18.700;2023-07-13T13:54:52;11.23;;;6.95;;
25511;SDS011;13414;44.534;18.700;2023-07-13T13:57:22;13.90;;;7.15;;
25511;SDS011;13414;44.534;18.700;2023-07-13T13:59:50;13.05;;;6.90;;
25511;SDS011;13414;44.534;18.700;2023-07-13T14:02:27;14.40;;;7.07;;
25511;SDS011;13414;44.534;18.700;2023-07-13T14:04:58;14.80;;;7.32;;
25511;SDS011;13414;44.534;18.700;2023-07-13T14:07:27;12.57;;;6.97;;
25511;SDS011;13414;44.534;18.700;2023-07-13T14:09:57;12.10;;;8.60;;
25511;SDS011;13414;44.534;18.700;2023-07-13T14:12:26;12.32;;;7.13;;
25511;SDS011;13414;44.534;18.700;2023-07-13T14:14:55;11.27;;;6.93;;
25511;SDS011;13414;44.534;18.700;2023-07-13T14:17:24;12.60;;;6.70;;
25511;SDS011;13414;44.534;18.700;2023-07-13T14:19:54;13.73;;;6.90;;
25511;SDS011;13414;44.534;18.700;2023-07-13T14:22:23;12.95;;;7.68;;
25511;SDS011;13414;44.534;18.700;2023-07-13T14:24:52;12.18;;;7.35;;
25511;SDS011;13414;44.534;18.700;2023-07-13T14:27:20;15.27;;;7.60;;
25511;SDS011;13414;44.534;18.700;2023-07-13T14:29:47;14.15;;;9.00;;
25511;SDS011;13414;44.534;18.700;2023-07-13T14:32:17;10.32;;;7.40;;
25511;SDS011;13414;44.534;18.700;2023-07-13T14:34:45;15.95;;;7.95;;
25511;SDS011;13414;44.534;18.700;2023-07-13T14:37:13;16.13;;;7.47;;
25511;SDS011;13414;44.534;18.700;2023-07-13T14:39:43;13.52;;;7.93;;